RKTN

Daegu Airport

Daegu, South Korea
TAF RKTN 221100Z 2212/2318 31006KT 9999 SCT040 TNM03/2221Z TX11/2307Z
Issued Valid From Valid To
Jan-22 @ 11:00 UTC
(6 hours ago)
Jan-22 @ 12:00 UTC
(5 hours ago)
Jan-23 @ 18:00 UTC
(-1 days ago)
Jan-22 @ 12:00 to Jan-23 @ 18:00
TAF RKTN 221100Z 2212/2318 31006KT 9999 SCT040 TNM03/2221Z TX11/2307Z
Wind Visibility Clouds
310° at 6 knots 10,000+ meters
  • Scattered at 4,000' AGL
TAF RKTN 221100Z 2212/2318 31006KT 9999 SCT040 TNM03/2221Z TX11/2307Z
Issued Jan-22 @ 11:00 UTC
(6 hours ago)
Valid From Jan-22 @ 12:00 UTC
(5 hours ago)
Valid To Jan-23 @ 18:00 UTC
(-1 days ago)
Jan-22 @ 12:00 - Jan-23 @ 18:00
Wind Visibility
310° at 6 knots 10,000+ meters
Clouds
  • Scattered at 4,000' AGL